Station Historical Data
Daily Summary for June 5, 2017 Units:  English    Metric   Both
« Previous Day
Next Day »
Daily Weekly Monthly Yearly Custom
  High: Low: Average:
Temperature: 65.3 °F 56.7 °F 60 °F
Dew Point: 60.1 °F 52.9 °F 56 °F
Humidity: 93% 81% 87%
Wind Speed: 8.0mph 0.0mph 1.3mph
Wind Gust: 11.0mph - -
Wind- - WNW
Pressure: 29.77 in 29.69 in -
Precipitation: 0.00 in    
Historical Graphs
 
 
Tabular Data for June 5, 2017
Time Temperature Dew Point Pressure Wind Wind Speed Wind Gust Humidity Rainfall Rate (Hourly)
00:04 63.4 °F 59.5 °F 29.72 in WSW 1.0 mph 7.0 mph 87% 0.00 in
00:09 63.2 °F 59.3 °F 29.72 in SW 5.0 mph 6.0 mph 87% 0.00 in
00:14 63.0 °F 59.1 °F 29.72 in SW 3.0 mph 6.0 mph 87% 0.00 in
00:19 62.7 °F 58.8 °F 29.72 in SW 2.0 mph 5.0 mph 87% 0.00 in
00:24 62.5 °F 58.6 °F 29.72 in WSW 3.0 mph 4.0 mph 87% 0.00 in
00:29 62.2 °F 58.3 °F 29.72 in WSW 2.0 mph 3.0 mph 87% 0.00 in
00:34 62.0 °F 58.4 °F 29.72 in WSW 2.0 mph 4.0 mph 88% 0.00 in
00:39 61.8 °F 58.2 °F 29.72 in WSW 2.0 mph 5.0 mph 88% 0.00 in
00:44 61.5 °F 57.9 °F 29.72 in WSW 2.0 mph 5.0 mph 88% 0.00 in
00:49 61.3 °F 58.0 °F 29.72 in WSW 2.0 mph 6.0 mph 89% 0.00 in
00:54 61.2 °F 57.9 °F 29.72 in West 1.0 mph 6.0 mph 89% 0.00 in
00:59 61.1 °F 57.8 °F 29.72 in West 1.0 mph 3.0 mph 89% 0.00 in
01:04 61.1 °F 58.1 °F 29.72 in West 1.0 mph 3.0 mph 90% 0.00 in
01:09 61.1 °F 58.1 °F 29.72 in Calm   2.0 mph 90% 0.00 in
01:14 61.1 °F 58.1 °F 29.72 in Calm   2.0 mph 90% 0.00 in
01:19 61.2 °F 58.2 °F 29.72 in Calm   2.0 mph 90% 0.00 in
01:24 61.3 °F 58.3 °F 29.72 in Calm   2.0 mph 90% 0.00 in
01:29 61.4 °F 58.4 °F 29.72 in Calm     90% 0.00 in
01:34 61.4 °F 58.4 °F 29.72 in West 1.0 mph 2.0 mph 90% 0.00 in
01:39 61.4 °F 58.4 °F 29.72 in West 1.0 mph 3.0 mph 90% 0.00 in
01:44 61.2 °F 58.2 °F 29.72 in West 1.0 mph 3.0 mph 90% 0.00 in
01:49 61.0 °F 58.0 °F 29.72 in West 1.0 mph 3.0 mph 90% 0.00 in
01:54 60.9 °F 57.9 °F 29.72 in Calm     90% 0.00 in
01:59 60.8 °F 57.8 °F 29.72 in Calm     90% 0.00 in
02:04 60.6 °F 57.7 °F 29.72 in Calm     90% 0.00 in
02:09 60.6 °F 58.0 °F 29.71 in Calm     91% 0.00 in
02:14 60.5 °F 57.9 °F 29.72 in Calm     91% 0.00 in
02:19 60.3 °F 57.7 °F 29.71 in Calm     91% 0.00 in
02:24 60.1 °F 57.5 °F 29.71 in Calm   3.0 mph 91% 0.00 in
02:29 60.1 °F 57.5 °F 29.72 in West 1.0 mph 3.0 mph 91% 0.00 in
02:34 60.0 °F 57.4 °F 29.72 in West 1.0 mph 3.0 mph 91% 0.00 in
02:39 59.8 °F 57.2 °F 29.71 in Calm     91% 0.00 in
02:44 59.6 °F 57.0 °F 29.71 in Calm     91% 0.00 in
02:49 59.4 °F 56.8 °F 29.71 in Calm     91% 0.00 in
02:54 59.4 °F 57.1 °F 29.71 in Calm     92% 0.00 in
02:59 59.4 °F 57.1 °F 29.71 in Calm     92% 0.00 in
03:04 59.4 °F 57.1 °F 29.70 in Calm     92% 0.00 in
03:09 59.3 °F 57.0 °F 29.70 in Calm     92% 0.00 in
03:14 59.3 °F 57.0 °F 29.70 in Calm     92% 0.00 in
03:19 59.1 °F 56.8 °F 29.70 in Calm   2.0 mph 92% 0.00 in
03:24 59.1 °F 56.8 °F 29.70 in Calm   2.0 mph 92% 0.00 in
03:29 58.9 °F 56.6 °F 29.70 in Calm   1.0 mph 92% 0.00 in
03:34 58.9 °F 56.6 °F 29.70 in Calm     92% 0.00 in
03:39 58.6 °F 56.3 °F 29.70 in Calm     92% 0.00 in
03:44 58.6 °F 56.3 °F 29.70 in Calm     92% 0.00 in
03:49 58.6 °F 56.3 °F 29.70 in Calm   2.0 mph 92% 0.00 in
03:54 58.5 °F 56.2 °F 29.70 in Calm   2.0 mph 92% 0.00 in
03:59 58.2 °F 55.9 °F 29.69 in Calm     92% 0.00 in
04:04 58.0 °F 55.7 °F 29.69 in Calm     92% 0.00 in
04:09 57.7 °F 55.4 °F 29.69 in Calm     92% 0.00 in
04:14 57.5 °F 55.2 °F 29.69 in Calm     92% 0.00 in
04:19 57.3 °F 55.0 °F 29.69 in Calm     92% 0.00 in
04:24 57.1 °F 54.8 °F 29.69 in Calm     92% 0.00 in
04:29 57.1 °F 54.8 °F 29.69 in Calm     92% 0.00 in
04:34 57.0 °F 54.7 °F 29.70 in Calm     92% 0.00 in
04:39 57.0 °F 55.0 °F 29.70 in Calm     93% 0.00 in
04:44 57.1 °F 55.1 °F 29.70 in Calm     93% 0.00 in
04:49 57.2 °F 54.9 °F 29.70 in Calm     92% 0.00 in
04:54 57.3 °F 55.0 °F 29.70 in Calm     92% 0.00 in
04:59 57.2 °F 54.9 °F 29.70 in Calm     92% 0.00 in
05:04 57.2 °F 54.9 °F 29.70 in Calm     92% 0.00 in
05:09 57.1 °F 54.8 °F 29.71 in Calm     92% 0.00 in
05:14 57.1 °F 54.8 °F 29.71 in NNW 5.0 mph 6.0 mph 92% 0.00 in
05:19 57.0 °F 54.7 °F 29.71 in NNW 2.0 mph 6.0 mph 92% 0.00 in
05:24 57.0 °F 54.7 °F 29.71 in NNW 2.0 mph 5.0 mph 92% 0.00 in
05:29 57.0 °F 54.7 °F 29.71 in NNW 2.0 mph 6.0 mph 92% 0.00 in
05:34 57.0 °F 54.7 °F 29.71 in NNW 2.0 mph 6.0 mph 92% 0.00 in
05:39 56.9 °F 54.6 °F 29.70 in North 1.0 mph 4.0 mph 92% 0.00 in
05:44 56.8 °F 54.5 °F 29.70 in Calm   1.0 mph 92% 0.00 in
05:49 56.7 °F 54.4 °F 29.70 in Calm     92% 0.00 in
05:54 56.8 °F 54.8 °F 29.71 in Calm     93% 0.00 in
05:59 57.0 °F 55.0 °F 29.71 in Calm     93% 0.00 in
06:04 57.1 °F 55.1 °F 29.71 in Calm     93% 0.00 in
06:09 57.1 °F 55.1 °F 29.71 in Calm     93% 0.00 in
06:14 57.1 °F 55.1 °F 29.71 in Calm     93% 0.00 in
06:19 57.3 °F 55.3 °F 29.70 in Calm     93% 0.00 in
06:24 57.7 °F 55.7 °F 29.71 in Calm     93% 0.00 in
06:29 58.0 °F 56.0 °F 29.70 in Calm     93% 0.00 in
06:34 58.1 °F 56.1 °F 29.70 in Calm   4.0 mph 93% 0.00 in
06:39 58.4 °F 56.1 °F 29.70 in Calm   2.0 mph 92% 0.00 in
06:44 58.6 °F 56.3 °F 29.70 in South 1.0 mph 4.0 mph 92% 0.00 in
06:49 58.9 °F 56.6 °F 29.70 in Calm   4.0 mph 92% 0.00 in
06:54 59.0 °F 56.4 °F 29.70 in Calm   3.0 mph 91% 0.00 in
06:59 59.0 °F 56.4 °F 29.70 in Calm   3.0 mph 91% 0.00 in
07:04 59.1 °F 56.5 °F 29.70 in Calm   3.0 mph 91% 0.00 in
07:09 59.3 °F 56.7 °F 29.70 in Calm   2.0 mph 91% 0.00 in
07:14 59.5 °F 56.9 °F 29.70 in Calm     91% 0.00 in
07:19 59.7 °F 57.1 °F 29.70 in Calm     91% 0.00 in
07:24 59.8 °F 56.9 °F 29.70 in Calm   2.0 mph 90% 0.00 in
07:29 59.9 °F 57.0 °F 29.70 in Calm   2.0 mph 90% 0.00 in
07:34 60.1 °F 57.2 °F 29.70 in Calm     90% 0.00 in
07:39 60.4 °F 57.5 °F 29.69 in Calm     90% 0.00 in
07:44 60.7 °F 57.4 °F 29.69 in Calm     89% 0.00 in
07:49 61.1 °F 57.8 °F 29.69 in Calm     89% 0.00 in
07:54 60.9 °F 57.3 °F 29.69 in Calm     88% 0.00 in
07:59 61.3 °F 57.7 °F 29.69 in Calm     88% 0.00 in
08:04 61.6 °F 57.7 °F 29.69 in Calm     87% 0.00 in
08:09 62.1 °F 58.2 °F 29.69 in Calm     87% 0.00 in
08:14 62.5 °F 58.3 °F 29.69 in Calm     86% 0.00 in
08:19 62.4 °F 57.8 °F 29.69 in Calm     85% 0.00 in
08:29 62.4 °F 57.8 °F 29.69 in Calm     85% 0.00 in
08:34 62.2 °F 57.6 °F 29.69 in Calm     85% 0.00 in
08:39 62.2 °F 57.6 °F 29.69 in Calm     85% 0.00 in
08:44 62.0 °F 57.4 °F 29.69 in Calm     85% 0.00 in
08:49 61.8 °F 57.2 °F 29.70 in Calm     85% 0.00 in
08:54 61.6 °F 57.4 °F 29.70 in North 3.0 mph 5.0 mph 86% 0.00 in
08:59 61.3 °F 57.1 °F 29.70 in NNW 2.0 mph 6.0 mph 86% 0.00 in
09:04 61.1 °F 56.9 °F 29.70 in NNW 2.0 mph 6.0 mph 86% 0.00 in
09:09 60.9 °F 56.7 °F 29.70 in NNW 2.0 mph 4.0 mph 86% 0.00 in
09:14 60.8 °F 56.9 °F 29.70 in NNW 1.0 mph 3.0 mph 87% 0.00 in
09:19 60.9 °F 57.0 °F 29.70 in NNW 1.0 mph 4.0 mph 87% 0.00 in
09:24 61.2 °F 57.3 °F 29.70 in NNW 4.0 mph 4.0 mph 87% 0.00 in
09:29 61.3 °F 57.4 °F 29.69 in NNW 3.0 mph 5.0 mph 87% 0.00 in
09:34 61.7 °F 57.5 °F 29.70 in NNE 1.0 mph 4.0 mph 86% 0.00 in
09:39 61.8 °F 57.6 °F 29.70 in NNE 1.0 mph 3.0 mph 86% 0.00 in
09:44 61.5 °F 57.3 °F 29.70 in Calm   4.0 mph 86% 0.00 in
09:49 61.6 °F 57.4 °F 29.69 in Calm   2.0 mph 86% 0.00 in
09:54 61.8 °F 57.9 °F 29.69 in Calm   3.0 mph 87% 0.00 in
09:59 62.2 °F 58.0 °F 29.70 in North 1.0 mph 4.0 mph 86% 0.00 in
10:04 62.0 °F 57.8 °F 29.70 in NNW 2.0 mph 4.0 mph 86% 0.00 in
10:09 61.8 °F 57.6 °F 29.70 in NNW 1.0 mph 4.0 mph 86% 0.00 in
10:14 61.5 °F 57.3 °F 29.70 in NNW 2.0 mph 5.0 mph 86% 0.00 in
10:19 61.5 °F 57.3 °F 29.70 in NNW 3.0 mph 5.0 mph 86% 0.00 in
10:24 61.6 °F 57.4 °F 29.70 in Calm   3.0 mph 86% 0.00 in
10:29 62.1 °F 57.9 °F 29.70 in NNW 1.0 mph 5.0 mph 86% 0.00 in
10:34 62.1 °F 57.9 °F 29.70 in NNW 2.0 mph 5.0 mph 86% 0.00 in
10:39 61.7 °F 57.1 °F 29.70 in NNW 3.0 mph 7.0 mph 85% 0.00 in
10:44 61.6 °F 57.4 °F 29.70 in NNW 3.0 mph 7.0 mph 86% 0.00 in
10:49 61.3 °F 57.1 °F 29.70 in NNW 1.0 mph 3.0 mph 86% 0.00 in
10:54 61.2 °F 57.3 °F 29.70 in NNW 2.0 mph 4.0 mph 87% 0.00 in
10:59 61.0 °F 57.1 °F 29.70 in North 2.0 mph 3.0 mph 87% 0.00 in
11:04 61.0 °F 57.1 °F 29.70 in North 2.0 mph 5.0 mph 87% 0.00 in
11:09 60.9 °F 57.0 °F 29.70 in NNW 3.0 mph 5.0 mph 87% 0.00 in
11:14 61.0 °F 57.1 °F 29.70 in North 2.0 mph 4.0 mph 87% 0.00 in
11:19 60.9 °F 57.0 °F 29.70 in NNW 3.0 mph 5.0 mph 87% 0.00 in
11:24 60.8 °F 56.9 °F 29.71 in NNW 2.0 mph 5.0 mph 87% 0.00 in
11:29 60.6 °F 57.0 °F 29.71 in NNW 2.0 mph 6.0 mph 88% 0.00 in
11:34 60.6 °F 57.3 °F 29.71 in NNW 2.0 mph 6.0 mph 89% 0.00 in
11:39 60.7 °F 57.7 °F 29.71 in NNW 1.0 mph 6.0 mph 90% 0.00 in
11:44 60.6 °F 58.0 °F 29.70 in NNW 1.0 mph 4.0 mph 91% 0.00 in
11:49 60.5 °F 57.6 °F 29.71 in NNW 2.0 mph 5.0 mph 90% 0.00 in
11:54 60.4 °F 57.8 °F 29.71 in Calm   5.0 mph 91% 0.00 in
11:59 60.7 °F 58.1 °F 29.71 in NNW 1.0 mph 5.0 mph 91% 0.00 in
12:04 60.7 °F 58.1 °F 29.71 in NNW 1.0 mph 3.0 mph 91% 0.00 in
12:09 61.0 °F 58.4 °F 29.71 in NNW 2.0 mph 3.0 mph 91% 0.00 in
12:14 60.8 °F 57.8 °F 29.71 in Calm   4.0 mph 90% 0.01 in
12:19 61.5 °F 58.8 °F 29.71 in NNW 2.0 mph 3.0 mph 91% 0.01 in
12:24 61.3 °F 58.0 °F 29.71 in Calm   6.0 mph 89% 0.01 in
12:29 61.4 °F 58.1 °F 29.71 in NNW 2.0 mph 6.0 mph 89% 0.01 in
12:34 61.5 °F 57.9 °F 29.71 in NNW 2.0 mph 4.0 mph 88% 0.01 in
12:39 62.3 °F 59.3 °F 29.71 in NNW 2.0 mph 4.0 mph 90% 0.01 in
12:44 62.7 °F 58.8 °F 29.71 in NW 2.0 mph 4.0 mph 87% 0.01 in
12:49 63.3 °F 59.4 °F 29.71 in NNW 1.0 mph 5.0 mph 87% 0.01 in
12:54 64.0 °F 59.1 °F 29.71 in NNW 2.0 mph 7.0 mph 84% 0.01 in
12:59 64.1 °F 59.2 °F 29.71 in NNW 3.0 mph 7.0 mph 84% 0.01 in
13:04 64.3 °F 59.4 °F 29.71 in NNW 2.0 mph 4.0 mph 84% 0.01 in
13:09 64.7 °F 59.1 °F 29.71 in NNW 3.0 mph 7.0 mph 82% 0.01 in
13:14 65.1 °F 60.1 °F 29.71 in North 2.0 mph 5.0 mph 84% 0.00 in
13:19 65.0 °F 59.4 °F 29.71 in NW 4.0 mph 5.0 mph 82% 0.00 in
13:24 65.3 °F 59.3 °F 29.70 in NW 2.0 mph 6.0 mph 81% 0.00 in
13:29 65.1 °F 59.1 °F 29.71 in NW 3.0 mph 6.0 mph 81% 0.00 in
13:34 64.8 °F 58.8 °F 29.71 in NW 3.0 mph 6.0 mph 81% 0.00 in
13:39 64.3 °F 58.7 °F 29.71 in NW 3.0 mph 6.0 mph 82% 0.00 in
13:44 63.9 °F 58.3 °F 29.71 in NW 5.0 mph 8.0 mph 82% 0.00 in
13:49 63.7 °F 58.4 °F 29.71 in NNW 4.0 mph 8.0 mph 83% 0.00 in
13:54 63.5 °F 57.9 °F 29.71 in NNE 2.0 mph 11.0 mph 82% 0.00 in
13:59 63.2 °F 57.9 °F 29.71 in NNW 4.0 mph 11.0 mph 83% 0.00 in
14:04 63.2 °F 57.9 °F 29.71 in NNW 3.0 mph 8.0 mph 83% 0.00 in
14:09 63.2 °F 57.9 °F 29.71 in North 8.0 mph 8.0 mph 83% 0.00 in
14:14 62.6 °F 57.4 °F 29.71 in NNW 6.0 mph 11.0 mph 83% 0.00 in
14:19 62.2 °F 57.0 °F 29.71 in NNW 2.0 mph 8.0 mph 83% 0.00 in
14:24 62.0 °F 57.1 °F 29.72 in NNW 3.0 mph 8.0 mph 84% 0.00 in
14:29 61.4 °F 56.5 °F 29.72 in NNW 4.0 mph 11.0 mph 84% 0.00 in
14:34 60.7 °F 55.8 °F 29.72 in NNW 5.0 mph 11.0 mph 84% 0.00 in
14:39 60.2 °F 55.7 °F 29.72 in NNW 5.0 mph 11.0 mph 85% 0.00 in
14:44 60.0 °F 55.5 °F 29.72 in NNW 5.0 mph 9.0 mph 85% 0.00 in
14:49 59.8 °F 55.6 °F 29.72 in NW 3.0 mph 8.0 mph 86% 0.00 in
14:54 59.6 °F 55.4 °F 29.72 in Calm   9.0 mph 86% 0.00 in
14:59 59.4 °F 55.2 °F 29.72 in NNW 3.0 mph 9.0 mph 86% 0.00 in
15:04 59.3 °F 55.1 °F 29.72 in NNW 3.0 mph 7.0 mph 86% 0.00 in
15:09 59.0 °F 54.8 °F 29.73 in NNW 2.0 mph 11.0 mph 86% 0.00 in
15:14 59.1 °F 54.9 °F 29.73 in West 2.0 mph 8.0 mph 86% 0.00 in
15:19 58.9 °F 54.7 °F 29.73 in North 2.0 mph 10.0 mph 86% 0.00 in
15:24 59.0 °F 54.8 °F 29.73 in North 5.0 mph 7.0 mph 86% 0.00 in
15:29 59.0 °F 54.8 °F 29.73 in North 3.0 mph 7.0 mph 86% 0.00 in
15:34 59.0 °F 54.8 °F 29.73 in NNW 4.0 mph 9.0 mph 86% 0.00 in
15:39 59.2 °F 55.0 °F 29.74 in NW 4.0 mph 7.0 mph 86% 0.00 in
15:44 59.2 °F 54.7 °F 29.74 in WNW 2.0 mph 7.0 mph 85% 0.00 in
15:49 59.2 °F 54.7 °F 29.74 in NNW 3.0 mph 9.0 mph 85% 0.00 in
15:54 59.1 °F 54.6 °F 29.74 in North 4.0 mph 9.0 mph 85% 0.00 in
15:59 59.1 °F 54.6 °F 29.74 in NNW 3.0 mph 9.0 mph 85% 0.00 in
16:04 59.2 °F 54.7 °F 29.74 in NNW 3.0 mph 8.0 mph 85% 0.00 in
16:09 59.2 °F 54.7 °F 29.74 in NNW 2.0 mph 6.0 mph 85% 0.00 in
16:14 59.1 °F 54.6 °F 29.74 in North 2.0 mph 6.0 mph 85% 0.00 in
16:19 59.2 °F 54.7 °F 29.74 in NNW 2.0 mph 8.0 mph 85% 0.00 in
16:24 59.3 °F 54.8 °F 29.73 in NNW 3.0 mph 6.0 mph 85% 0.00 in
16:29 59.5 °F 55.3 °F 29.73 in North 2.0 mph 3.0 mph 86% 0.00 in
16:39 59.8 °F 55.3 °F 29.73 in NNW 1.0 mph 5.0 mph 85% 0.00 in
16:44 59.6 °F 54.8 °F 29.73 in NNE 1.0 mph 4.0 mph 84% 0.00 in
16:49 59.6 °F 54.8 °F 29.73 in NNW 1.0 mph 6.0 mph 84% 0.00 in
16:54 59.5 °F 54.7 °F 29.73 in NNW 1.0 mph 7.0 mph 84% 0.00 in
16:59 60.1 °F 55.6 °F 29.73 in NNW 3.0 mph 7.0 mph 85% 0.00 in
17:04 60.1 °F 55.2 °F 29.73 in NNW 2.0 mph 5.0 mph 84% 0.00 in
17:09 60.1 °F 54.9 °F 29.73 in North 2.0 mph 5.0 mph 83% 0.00 in
17:14 60.2 °F 55.0 °F 29.73 in North 2.0 mph 4.0 mph 83% 0.00 in
17:24 60.2 °F 55.0 °F 29.73 in NNW 1.0 mph 5.0 mph 83% 0.00 in
17:29 60.1 °F 54.9 °F 29.73 in NNW 1.0 mph 5.0 mph 83% 0.00 in
17:34 60.0 °F 54.8 °F 29.73 in NNW 2.0 mph 5.0 mph 83% 0.00 in
17:39 59.9 °F 55.1 °F 29.73 in North 2.0 mph 5.0 mph 84% 0.00 in
17:44 59.9 °F 55.1 °F 29.73 in NNW 2.0 mph 5.0 mph 84% 0.00 in
17:49 59.9 °F 55.1 °F 29.73 in NW 3.0 mph 6.0 mph 84% 0.00 in
17:54 60.3 °F 55.1 °F 29.73 in NW 3.0 mph 6.0 mph 83% 0.00 in
17:59 60.5 °F 55.0 °F 29.73 in NW 1.0 mph 7.0 mph 82% 0.00 in
18:04 60.5 °F 55.0 °F 29.73 in NNW 1.0 mph 5.0 mph 82% 0.00 in
18:09 60.2 °F 54.7 °F 29.73 in NNW 1.0 mph 5.0 mph 82% 0.00 in
18:14 60.0 °F 54.8 °F 29.73 in North 2.0 mph 7.0 mph 83% 0.00 in
18:19 59.9 °F 54.7 °F 29.73 in NNW 2.0 mph 4.0 mph 83% 0.00 in
18:24 59.8 °F 54.6 °F 29.73 in NNW 1.0 mph 4.0 mph 83% 0.00 in
18:29 59.8 °F 54.6 °F 29.73 in NNW 1.0 mph 4.0 mph 83% 0.00 in
18:34 59.6 °F 54.4 °F 29.73 in North 2.0 mph 6.0 mph 83% 0.00 in
18:39 59.6 °F 54.1 °F 29.73 in NNW 2.0 mph 7.0 mph 82% 0.00 in
18:44 59.6 °F 54.1 °F 29.73 in Calm   5.0 mph 82% 0.00 in
18:49 59.6 °F 54.1 °F 29.73 in NNW 1.0 mph 4.0 mph 82% 0.00 in
18:54 59.5 °F 54.0 °F 29.74 in NNW 2.0 mph 5.0 mph 82% 0.00 in
18:59 59.5 °F 54.3 °F 29.74 in NNW 2.0 mph 5.0 mph 83% 0.00 in
19:04 59.5 °F 54.3 °F 29.74 in NNW 1.0 mph 3.0 mph 83% 0.00 in
19:09 59.6 °F 54.1 °F 29.74 in NW 1.0 mph 8.0 mph 82% 0.00 in
19:14 59.6 °F 54.1 °F 29.74 in NNW 3.0 mph 5.0 mph 82% 0.00 in
19:19 59.5 °F 54.0 °F 29.74 in Calm   4.0 mph 82% 0.00 in
19:24 59.5 °F 54.0 °F 29.74 in NNW 1.0 mph 4.0 mph 82% 0.00 in
19:29 59.5 °F 54.0 °F 29.74 in NNW 1.0 mph 5.0 mph 82% 0.00 in
19:34 59.4 °F 54.2 °F 29.74 in Calm   6.0 mph 83% 0.00 in
19:39 59.4 °F 54.2 °F 29.74 in Calm   1.0 mph 83% 0.00 in
19:44 59.3 °F 53.8 °F 29.74 in NNW 3.0 mph 5.0 mph 82% 0.00 in
19:49 59.4 °F 53.9 °F 29.75 in NNW 1.0 mph 5.0 mph 82% 0.00 in
19:54 59.3 °F 53.8 °F 29.75 in NNW 2.0 mph 5.0 mph 82% 0.00 in
19:59 59.3 °F 53.8 °F 29.75 in NW 2.0 mph 5.0 mph 82% 0.00 in
20:04 59.3 °F 53.8 °F 29.75 in NW 2.0 mph 7.0 mph 82% 0.00 in
20:09 59.2 °F 53.7 °F 29.75 in NNW 3.0 mph 7.0 mph 82% 0.00 in
20:14 59.1 °F 53.6 °F 29.75 in NNW 3.0 mph 7.0 mph 82% 0.00 in
20:19 59.1 °F 53.6 °F 29.75 in NNW 3.0 mph 6.0 mph 82% 0.00 in
20:24 59.1 °F 53.6 °F 29.75 in NNW 3.0 mph 7.0 mph 82% 0.00 in
20:29 59.0 °F 53.5 °F 29.75 in North 2.0 mph 5.0 mph 82% 0.00 in
20:34 59.0 °F 53.8 °F 29.75 in Calm   4.0 mph 83% 0.00 in
20:39 58.9 °F 53.7 °F 29.75 in Calm     83% 0.00 in
20:44 59.0 °F 53.8 °F 29.75 in Calm     83% 0.00 in
20:49 59.0 °F 53.8 °F 29.75 in Calm     83% 0.00 in
20:54 58.9 °F 53.7 °F 29.75 in Calm   5.0 mph 83% 0.00 in
20:59 58.9 °F 53.7 °F 29.75 in NW 1.0 mph 5.0 mph 83% 0.00 in
21:04 58.8 °F 53.6 °F 29.75 in NW 1.0 mph 5.0 mph 83% 0.00 in
21:09 58.7 °F 53.5 °F 29.76 in NW 1.0 mph 3.0 mph 83% 0.00 in
21:14 58.7 °F 53.5 °F 29.76 in Calm   5.0 mph 83% 0.00 in
21:19 58.7 °F 53.5 °F 29.76 in Calm   4.0 mph 83% 0.00 in
21:24 58.7 °F 53.2 °F 29.76 in NW 2.0 mph 4.0 mph 82% 0.00 in
21:29 58.6 °F 53.1 °F 29.76 in NW 1.0 mph 3.0 mph 82% 0.00 in
21:34 58.6 °F 53.1 °F 29.76 in NNW 1.0 mph 4.0 mph 82% 0.00 in
21:39 58.6 °F 53.5 °F 29.76 in NNW 1.0 mph 4.0 mph 83% 0.00 in
21:44 58.6 °F 53.5 °F 29.76 in NNW 1.0 mph 2.0 mph 83% 0.00 in
21:49 58.6 °F 53.5 °F 29.76 in Calm   2.0 mph 83% 0.00 in
21:54 58.5 °F 53.4 °F 29.76 in WNW 1.0 mph 4.0 mph 83% 0.00 in
21:59 58.4 °F 53.3 °F 29.76 in Calm   2.0 mph 83% 0.00 in
22:04 58.3 °F 53.2 °F 29.76 in Calm   2.0 mph 83% 0.00 in
22:09 58.2 °F 53.4 °F 29.76 in Calm   1.0 mph 84% 0.00 in
22:14 58.1 °F 53.3 °F 29.77 in Calm     84% 0.00 in
22:19 58.1 °F 53.3 °F 29.76 in Calm     84% 0.00 in
22:24 58.1 °F 53.3 °F 29.76 in Calm     84% 0.00 in
22:29 58.1 °F 53.3 °F 29.76 in Calm     84% 0.00 in
22:34 58.0 °F 53.2 °F 29.76 in Calm     84% 0.00 in
22:39 58.0 °F 52.9 °F 29.76 in Calm     83% 0.00 in
22:44 58.1 °F 53.3 °F 29.76 in Calm     84% 0.00 in
22:49 58.2 °F 53.4 °F 29.76 in Calm     84% 0.00 in
22:54 58.2 °F 53.1 °F 29.76 in Calm     83% 0.00 in
22:59 58.3 °F 53.2 °F 29.76 in Calm     83% 0.00 in
23:04 58.3 °F 53.2 °F 29.76 in Calm     83% 0.00 in
23:09 58.3 °F 53.2 °F 29.76 in Calm     83% 0.00 in
23:14 58.3 °F 53.2 °F 29.76 in Calm     83% 0.00 in
23:19 58.4 °F 53.3 °F 29.76 in Calm     83% 0.00 in
23:24 58.4 °F 53.3 °F 29.76 in Calm     83% 0.00 in
23:29 58.4 °F 53.3 °F 29.76 in Calm     83% 0.00 in
23:34 58.4 °F 52.9 °F 29.76 in Calm     82% 0.00 in
23:39 58.3 °F 53.2 °F 29.76 in Calm     83% 0.00 in
23:44 58.3 °F 53.2 °F 29.76 in SW 3.0 mph 4.0 mph 83% 0.00 in
23:49 58.4 °F 52.9 °F 29.76 in West 2.0 mph 5.0 mph 82% 0.00 in
23:54 58.4 °F 53.3 °F 29.76 in West 2.0 mph 5.0 mph 83% 0.00 in
23:59 58.4 °F 53.3 °F 29.76 in Calm   3.0 mph 83% 0.00 in
Buffalo, New York, USA
Compliments of Weather Underground - 2.5 mb